Roscoe, MO (64781)

4:35 PM CDT on October 25, 2014 (GMT -0500)
Gordon's Orchard | Change Station
CLOSE
Current Station
Personal Weather Station
Location: Collins, MO
Elevation: 925 ft
Nearby Weather Stations

Elev 925 ft 37.98 °N, 93.65 °W | Updated 9 minutes ago

Clear
Clear
89.6 °F
Feels Like 91 °F
N
0.0
Wind Variable Wind from West

Today
High -- | Low -- °F
--% Chance of Precip.
Yesterday
High -- | Low -- °F
Precip. -- in
7:33 AM 6:24 PM
Waxing Crescent, 4% visible
Pressure 30.02 in
Visibility 0.5 miles
Clouds
Heat Index 91 °F
Dew Point 63 °F
Humidity 42%
Rainfall 0.00 in
Snow Depth Not available.
UV Not available.
Pollen 2.70 out of 12
Air Quality Not available.
Flu Activity No Activity
METAR KGLY 252135Z AUTO 00000KT 1/2SM HZ VV005 27/14 A3002 RMK AO2

More Conditions Fewer Conditions

Pressure 30.02 in
Visibility 0.5 miles
Clouds
Heat Index 91 °F
Dew Point 63 °F
Humidity 42%
Rainfall 0.00 in
Snow Depth Not available.
UV Not available.
Pollen 2.70 out of 12
Air Quality Not available.
Flu Activity No Activity
METAR KGLY 252135Z AUTO 00000KT 1/2SM HZ VV005 27/14 A3002 RMK AO2

More Conditions Fewer Conditions

10-Day Weather Forecast

Almanac

Astronomy

Oct. 25, 2014 Rise Set
Actual Time 7:33 AM CDT 6:24 PM CDT
Civil Twilight 7:06 AM CDT 6:51 PM CDT
Nautical Twilight 6:35 AM CDT 7:22 PM CDT
Astronomical Twilight 6:05 AM CDT 7:52 PM CDT
Moon 9:11 AM CDT 7:49 PM CDT
Length of Visible Light 11h 44m
Length of Day
10h 50m
Tomorrow will be 2m 15s shorter.
Waxing Crescent, 4% of the Moon is Illuminated
Today
Waxing Crescent
Oct 30
First Quarter
Nov 6
Full
Nov 14
Last Quarter
Nov 22
New

Today's Extremes

State Highs State Lows

Community

WunderPhotos

Upload Photos

1,765,007 photos uploaded!

Nearby

Snow Depth

Station Depth Elevation
No new snow has been reported.

Earthquake Activity

City Distance Mag. Time & Date
No recent earthquake activity has been reported nearby.
Minimum magnitude displayed is 2.5.

Coastal Water Temperatures

Place Temperature
No Stations Reporting

Nearby Weather Stations